Time;durP1;ratioP1;P1;durP2;ratioP2;P2;SDS_P1;SDS_P2;PMS_P1;PMS_P2;Temp;Humidity;BMP_temperature;BMP_pressure;BME280_temperature;BME280_humidity;BME280_pressure;Samples;Min_cycle;Max_cycle;Signal;HPM_P1;HPM_P2
2022/07/28 00:00:07;;;;;;;5.93;1.70;;;13.20;99.90;;;;;;5082709;27;36836;-61
2022/07/28 00:02:34;;;;;;;5.70;1.77;;;13.20;99.90;;;;;;5084496;27;37424;-61
2022/07/28 00:05:04;;;;;;;4.85;1.50;;;13.20;99.90;;;;;;5081643;27;37399;-61
2022/07/28 00:07:31;;;;;;;3.47;1.42;;;13.10;99.90;;;;;;5082828;28;37706;-61
2022/07/28 00:09:58;;;;;;;2.13;1.08;;;13.10;99.90;;;;;;5083813;28;37501;-60
2022/07/28 00:12:26;;;;;;;3.25;1.33;;;13.10;99.90;;;;;;5083900;28;35165;-60
2022/07/28 00:14:53;;;;;;;4.72;1.98;;;13.00;99.90;;;;;;5084158;27;37633;-60
2022/07/28 00:17:20;;;;;;;4.63;1.90;;;13.00;99.90;;;;;;5082424;27;38246;-61
2022/07/28 00:19:48;;;;;;;4.72;1.98;;;13.00;99.90;;;;;;5083107;27;36801;-62
2022/07/28 00:22:16;;;;;;;2.20;1.10;;;13.00;99.90;;;;;;5084379;27;36774;-61
2022/07/28 00:24:44;;;;;;;4.07;1.75;;;13.00;99.90;;;;;;5083483;27;37557;-61
2022/07/28 00:27:12;;;;;;;4.30;1.40;;;13.00;99.90;;;;;;5083166;27;38109;-61
2022/07/28 00:29:39;;;;;;;4.55;1.67;;;13.00;99.90;;;;;;5083821;27;35723;-61
2022/07/28 00:32:07;;;;;;;2.83;1.58;;;13.00;99.90;;;;;;5083164;27;36615;-61
2022/07/28 00:34:34;;;;;;;4.25;1.40;;;13.00;99.90;;;;;;5083309;27;39324;-61
2022/07/28 00:37:01;;;;;;;3.75;1.23;;;13.00;99.90;;;;;;5083197;27;40223;-61
2022/07/28 00:39:30;;;;;;;3.05;1.40;;;13.00;99.90;;;;;;5082289;27;37442;-61
2022/07/28 00:41:58;;;;;;;4.55;2.08;;;13.10;99.90;;;;;;5083027;27;36631;-61
2022/07/28 00:44:25;;;;;;;4.25;1.67;;;13.10;99.90;;;;;;5082953;27;38654;-61
2022/07/28 00:46:53;;;;;;;2.70;1.50;;;13.00;99.90;;;;;;5083094;27;20532;-61
2022/07/28 00:49:21;;;;;;;3.00;1.70;;;13.00;99.90;;;;;;5084250;27;35657;-60
2022/07/28 00:51:49;;;;;;;6.10;2.13;;;13.00;99.90;;;;;;5083898;27;35811;-61
2022/07/28 00:54:16;;;;;;;4.35;1.73;;;13.00;99.90;;;;;;5084113;27;39620;-61
2022/07/28 00:56:45;;;;;;;4.55;1.95;;;13.00;99.90;;;;;;5081518;27;36232;-61
2022/07/28 00:59:12;;;;;;;7.88;1.60;;;13.00;99.90;;;;;;5082577;27;37981;-60
2022/07/28 01:01:39;;;;;;;6.72;1.90;;;13.00;99.90;;;;;;5082778;27;36648;-60
2022/07/28 01:04:07;;;;;;;4.95;2.25;;;13.00;99.90;;;;;;5083110;27;38692;-61
2022/07/28 01:06:59;;;;;;;5.13;2.10;;;13.00;99.90;;;;;;5082210;28;36214;-60
2022/07/28 01:09:47;;;;;;;6.35;2.30;;;12.90;99.90;;;;;;5082917;27;39656;-61
2022/07/28 01:12:33;;;;;;;4.85;2.25;;;12.90;99.90;;;;;;5082442;27;37423;-61
2022/07/28 01:15:09;;;;;;;4.15;1.75;;;12.90;99.90;;;;;;5083057;27;38582;-61
2022/07/28 01:17:41;;;;;;;5.47;2.25;;;13.00;99.90;;;;;;5082281;27;38351;-60
2022/07/28 01:20:12;;;;;;;3.90;1.60;;;12.90;99.90;;;;;;5082961;27;37335;-61
2022/07/28 01:22:45;;;;;;;4.63;1.80;;;12.90;99.90;;;;;;5082119;27;36452;-60
2022/07/28 01:25:23;;;;;;;5.50;1.73;;;12.90;99.90;;;;;;5082920;27;36377;-60
2022/07/28 01:28:01;;;;;;;3.85;2.00;;;12.90;99.90;;;;;;5081883;27;37220;-60
2022/07/28 01:30:36;;;;;;;1.85;1.02;;;12.90;99.90;;;;;;5082212;27;37876;-61
2022/07/28 01:33:12;;;;;;;3.33;1.50;;;12.90;99.90;;;;;;5081870;27;36507;-61
2022/07/28 01:35:44;;;;;;;3.40;1.50;;;12.90;99.90;;;;;;5082853;28;37760;-60
2022/07/28 01:38:13;;;;;;;4.05;1.67;;;12.80;99.90;;;;;;5082312;27;36042;-60
2022/07/28 01:40:44;;;;;;;5.18;1.65;;;12.80;99.90;;;;;;5082823;27;37538;-60
2022/07/28 01:43:22;;;;;;;3.08;1.75;;;12.90;99.90;;;;;;5082668;27;35308;-60
2022/07/28 01:45:54;;;;;;;5.05;1.95;;;12.90;99.90;;;;;;5083297;27;37473;-60
2022/07/28 01:48:24;;;;;;;4.95;1.67;;;12.80;99.90;;;;;;5083306;27;37169;-60
2022/07/28 01:50:54;;;;;;;2.22;1.20;;;12.80;99.90;;;;;;5087118;28;35865;-60
2022/07/28 01:53:24;;;;;;;4.00;1.50;;;12.80;99.90;;;;;;5085574;27;36300;-60
2022/07/28 01:55:53;;;;;;;2.63;1.30;;;12.80;99.90;;;;;;5085019;27;37125;-60
2022/07/28 01:58:22;;;;;;;3.72;1.38;;;12.90;99.90;;;;;;5086163;27;35733;-60
2022/07/28 02:00:53;;;;;;;2.67;1.27;;;12.80;99.90;;;;;;5085429;27;37164;-60
2022/07/28 02:03:24;;;;;;;3.13;1.30;;;12.80;99.90;;;;;;5085421;27;36309;-61
2022/07/28 02:05:53;;;;;;;3.92;1.30;;;12.90;99.90;;;;;;5085818;28;40112;-60
2022/07/28 02:08:22;;;;;;;3.30;1.35;;;12.80;99.90;;;;;;5085579;27;37122;-61
2022/07/28 02:13:34;;;;;;;7.28;1.80;;;12.80;99.90;;;;;;5084708;27;36184;-61
2022/07/28 02:16:07;;;;;;;4.03;1.83;;;12.90;99.90;;;;;;5085832;27;38462;-60
2022/07/28 02:18:37;;;;;;;3.70;1.85;;;12.80;99.90;;;;;;5084661;27;37335;-60
2022/07/28 02:21:06;;;;;;;6.05;2.60;;;12.80;99.90;;;;;;5084621;27;37907;-60
2022/07/28 02:23:34;;;;;;;3.55;1.58;;;12.80;99.90;;;;;;5084693;27;38301;-60
2022/07/28 02:26:06;;;;;;;4.88;2.47;;;12.80;99.90;;;;;;5085253;27;40063;-60
2022/07/28 02:28:34;;;;;;;5.22;2.22;;;12.70;99.90;;;;;;5084767;27;37179;-61
2022/07/28 02:31:09;;;;;;;4.28;2.08;;;12.70;99.90;;;;;;5084972;27;38342;-60
2022/07/28 02:33:38;;;;;;;3.97;1.70;;;12.70;99.90;;;;;;5084781;27;37571;-60
2022/07/28 02:36:09;;;;;;;7.28;2.45;;;12.70;99.90;;;;;;5084866;27;38659;-61
2022/07/28 02:38:41;;;;;;;3.95;2.00;;;12.70;99.90;;;;;;5084640;27;38110;-60
2022/07/28 02:41:13;;;;;;;3.22;2.00;;;12.80;99.90;;;;;;5084949;27;37026;-60
2022/07/28 02:43:44;;;;;;;4.53;1.80;;;12.60;99.90;;;;;;5083266;27;36671;-61
2022/07/28 02:46:17;;;;;;;3.83;1.70;;;12.70;99.90;;;;;;5083624;27;37509;-61
2022/07/28 02:48:49;;;;;;;3.08;1.27;;;12.70;99.90;;;;;;5084431;27;36039;-60
2022/07/28 02:51:18;;;;;;;3.67;1.25;;;12.70;99.90;;;;;;5084238;27;35844;-60
2022/07/28 02:53:47;;;;;;;1.98;1.10;;;12.70;99.90;;;;;;5084173;27;37059;-60
2022/07/28 02:56:16;;;;;;;2.17;1.20;;;12.70;99.90;;;;;;5083735;27;38871;-60
2022/07/28 02:58:45;;;;;;;2.97;1.30;;;12.60;99.90;;;;;;5083524;27;37224;-60
2022/07/28 03:01:18;;;;;;;3.08;1.55;;;12.70;99.90;;;;;;5084014;27;36898;-61
2022/07/28 03:03:46;;;;;;;6.47;1.73;;;12.60;99.90;;;;;;5084945;27;37389;-60
2022/07/28 03:06:15;;;;;;;4.70;1.77;;;12.60;99.90;;;;;;5084363;27;39028;-60
2022/07/28 03:08:42;;;;;;;2.45;1.38;;;12.60;99.90;;;;;;5083459;27;38926;-60
2022/07/28 03:11:11;;;;;;;5.55;2.17;;;12.60;99.90;;;;;;5084896;27;37728;-60
2022/07/28 03:13:40;;;;;;;4.25;1.70;;;12.60;99.90;;;;;;5082744;27;37409;-60
2022/07/28 03:16:08;;;;;;;3.90;1.48;;;12.50;99.90;;;;;;5083464;27;38903;-60
2022/07/28 03:18:37;;;;;;;3.40;1.77;;;12.60;99.90;;;;;;5084349;27;35982;-60
2022/07/28 03:21:04;;;;;;;5.63;1.90;;;12.60;99.90;;;;;;5085368;27;38405;-60
2022/07/28 03:23:37;;;;;;;4.75;2.08;;;12.70;99.90;;;;;;5083291;27;35991;-61
2022/07/28 03:26:07;;;;;;;6.07;2.17;;;12.70;99.90;;;;;;5083474;27;37937;-60
2022/07/28 03:28:36;;;;;;;5.75;2.13;;;12.70;99.90;;;;;;5082654;27;38844;-60
2022/07/28 03:31:09;;;;;;;4.45;2.05;;;12.70;99.90;;;;;;5085013;27;37094;-60
2022/07/28 03:33:38;;;;;;;5.17;2.80;;;12.70;99.90;;;;;;5083774;27;36613;-60
2022/07/28 03:36:09;;;;;;;4.00;2.03;;;12.70;99.90;;;;;;5084764;27;37595;-61
2022/07/28 03:38:42;;;;;;;4.43;1.98;;;12.70;99.90;;;;;;5084011;27;37093;-61
2022/07/28 03:41:10;;;;;;;7.03;2.58;;;12.70;99.90;;;;;;5082435;27;35921;-61
2022/07/28 03:43:39;;;;;;;5.25;2.22;;;12.80;99.90;;;;;;5083949;27;35383;-60
2022/07/28 03:46:08;;;;;;;4.07;1.75;;;12.80;99.90;;;;;;5084504;27;37384;-60
2022/07/28 03:48:36;;;;;;;4.20;2.00;;;12.80;99.90;;;;;;5083902;27;37947;-61
2022/07/28 03:51:04;;;;;;;4.68;1.95;;;12.80;99.90;;;;;;5084295;27;37414;-60
2022/07/28 03:53:31;;;;;;;4.45;2.05;;;12.90;99.90;;;;;;5083355;27;36747;-60
2022/07/28 03:55:58;;;;;;;4.03;1.48;;;13.00;99.90;;;;;;5083833;27;37435;-60
2022/07/28 03:58:27;;;;;;;2.95;1.63;;;13.00;99.90;;;;;;5084573;27;38594;-60
2022/07/28 04:00:55;;;;;;;2.80;1.40;;;13.00;99.90;;;;;;5083731;27;36862;-60
2022/07/28 04:03:22;;;;;;;3.47;1.73;;;13.00;99.90;;;;;;5082685;27;37516;-60
2022/07/28 04:05:51;;;;;;;5.72;1.77;;;13.00;99.90;;;;;;5084231;27;37569;-60
2022/07/28 04:08:18;;;;;;;4.15;2.25;;;13.00;99.90;;;;;;5084077;27;38947;-60
2022/07/28 04:10:46;;;;;;;4.50;2.35;;;13.00;99.90;;;;;;5082119;27;36976;-61
2022/07/28 04:13:13;;;;;;;6.15;2.17;;;13.10;99.90;;;;;;5083651;27;35872;-60
2022/07/28 04:15:41;;;;;;;4.47;2.40;;;13.20;99.90;;;;;;5083043;27;38502;-60
2022/07/28 04:18:08;;;;;;;4.78;2.28;;;13.20;99.90;;;;;;5083846;27;36126;-60
2022/07/28 04:20:35;;;;;;;4.93;2.33;;;13.20;99.90;;;;;;5083918;27;37089;-61
2022/07/28 04:23:04;;;;;;;5.82;2.22;;;13.30;99.90;;;;;;5083350;27;36396;-60
2022/07/28 04:25:31;;;;;;;5.53;2.28;;;13.30;99.90;;;;;;5081713;28;38736;-60
2022/07/28 04:27:58;;;;;;;3.85;2.10;;;13.30;99.90;;;;;;5083834;27;35935;-60
2022/07/28 04:30:26;;;;;;;3.08;1.90;;;13.30;99.90;;;;;;5081894;27;37682;-60
2022/07/28 04:32:56;;;;;;;5.45;2.22;;;13.30;99.90;;;;;;5081040;27;37855;-60
2022/07/28 04:35:25;;;;;;;5.65;2.22;;;13.30;99.90;;;;;;5082329;27;37584;-59
2022/07/28 04:37:54;;;;;;;4.57;2.25;;;13.30;99.90;;;;;;5082204;27;36100;-60
2022/07/28 04:40:23;;;;;;;5.22;2.40;;;13.30;99.90;;;;;;5083243;27;35750;-61
2022/07/28 04:42:50;;;;;;;5.97;2.38;;;13.30;99.90;;;;;;5082811;27;37698;-61
2022/07/28 04:45:17;;;;;;;5.03;2.28;;;13.30;99.90;;;;;;5082191;27;38851;-61
2022/07/28 04:47:45;;;;;;;4.40;2.10;;;13.40;99.90;;;;;;5083216;27;38967;-60
2022/07/28 04:50:14;;;;;;;3.30;1.70;;;13.40;99.90;;;;;;5083599;27;37252;-60
2022/07/28 04:52:42;;;;;;;4.93;2.38;;;13.40;99.90;;;;;;5082433;27;37227;-60
2022/07/28 04:55:09;;;;;;;5.78;2.22;;;13.30;99.90;;;;;;5082451;27;36432;-60
2022/07/28 04:57:38;;;;;;;3.92;2.20;;;13.30;99.90;;;;;;5084844;27;36787;-60
2022/07/28 05:00:12;;;;;;;5.03;2.50;;;13.40;99.90;;;;;;5079239;27;37562;-60
2022/07/28 05:02:39;;;;;;;;;;;13.40;99.90;;;;;;5085740;27;38152;-61
2022/07/28 05:05:07;;;;;;;5.95;2.40;;;13.40;99.90;;;;;;5086204;27;39247;-60
2022/07/28 05:07:35;;;;;;;4.65;2.40;;;13.40;99.90;;;;;;5085222;27;38206;-61
2022/07/28 05:10:02;;;;;;;7.90;2.22;;;13.30;99.90;;;;;;5087249;27;39412;-60
2022/07/28 05:12:29;;;;;;;6.72;2.47;;;13.30;99.90;;;;;;5086855;27;36564;-60
2022/07/28 05:14:58;;;;;;;6.60;2.50;;;13.30;99.90;;;;;;5085588;27;36220;-61
2022/07/28 05:17:26;;;;;;;6.53;2.40;;;13.30;99.90;;;;;;5085414;27;37259;-60
2022/07/28 05:19:53;;;;;;;8.52;2.63;;;13.40;99.90;;;;;;5087250;27;36896;-61
2022/07/28 05:22:21;;;;;;;5.78;1.90;;;13.40;99.90;;;;;;5087086;27;36909;-60
2022/07/28 05:24:48;;;;;;;4.47;2.00;;;13.40;99.90;;;;;;5089196;27;36347;-60
2022/07/28 05:27:15;;;;;;;6.28;1.95;;;13.40;99.90;;;;;;5089005;27;37298;-61
2022/07/28 05:29:43;;;;;;;5.68;2.30;;;13.50;99.90;;;;;;5090143;27;36895;-60
2022/07/28 05:32:12;;;;;;;5.53;2.70;;;13.50;99.90;;;;;;5090087;27;35339;-61
2022/07/28 05:34:39;;;;;;;8.23;3.33;;;13.60;99.90;;;;;;5089546;27;37474;-60
2022/07/28 05:37:07;;;;;;;6.65;3.00;;;13.60;99.90;;;;;;5090572;27;36750;-60
2022/07/28 05:39:34;;;;;;;5.13;2.58;;;13.70;99.90;;;;;;5089433;27;36914;-60
2022/07/28 05:42:01;;;;;;;8.00;2.72;;;13.70;99.90;;;;;;5089109;27;35538;-60
2022/07/28 05:44:28;;;;;;;8.15;2.38;;;13.70;99.90;;;;;;5087537;27;37889;-61
2022/07/28 05:46:56;;;;;;;5.00;2.67;;;13.80;99.90;;;;;;5090379;27;37860;-61
2022/07/28 05:49:25;;;;;;;10.02;2.70;;;13.90;99.90;;;;;;5089960;27;34878;-61
2022/07/28 05:51:52;;;;;;;4.00;2.17;;;13.90;99.90;;;;;;5089985;27;35337;-60
2022/07/28 05:54:19;;;;;;;4.40;2.25;;;14.00;99.90;;;;;;5088213;27;38260;-60
2022/07/28 05:56:47;;;;;;;4.97;2.40;;;14.00;99.90;;;;;;5089589;27;37956;-61
2022/07/28 05:59:14;;;;;;;5.43;2.75;;;14.10;99.90;;;;;;5088143;27;38777;-60
2022/07/28 06:01:41;;;;;;;5.07;2.40;;;14.20;99.90;;;;;;5089574;27;36578;-61
2022/07/28 06:04:08;;;;;;;5.20;2.10;;;14.20;99.90;;;;;;5088841;27;37281;-60
2022/07/28 06:06:37;;;;;;;6.05;2.33;;;14.20;99.90;;;;;;5090103;27;37264;-60
2022/07/28 06:09:05;;;;;;;11.73;2.58;;;14.30;99.90;;;;;;5089121;27;38316;-60
2022/07/28 06:11:32;;;;;;;6.47;2.80;;;14.30;99.90;;;;;;5089629;27;36435;-61
2022/07/28 06:13:59;;;;;;;6.97;2.70;;;14.40;99.90;;;;;;5087158;27;37822;-61
2022/07/28 06:16:26;;;;;;;5.40;2.38;;;14.40;99.90;;;;;;5088986;27;38129;-60
2022/07/28 06:18:54;;;;;;;7.35;2.63;;;14.50;99.90;;;;;;5086419;27;37509;-60
2022/07/28 06:21:23;;;;;;;6.47;2.80;;;14.50;99.90;;;;;;5087944;27;35301;-60
2022/07/28 06:23:52;;;;;;;4.30;2.05;;;14.60;99.90;;;;;;5084922;27;38945;-60
2022/07/28 06:26:20;;;;;;;6.93;2.13;;;14.60;99.90;;;;;;5086595;27;37354;-60
2022/07/28 06:28:47;;;;;;;4.57;2.15;;;14.70;99.90;;;;;;5086777;27;35748;-60
2022/07/28 06:31:14;;;;;;;5.18;2.10;;;14.70;99.90;;;;;;5087348;27;36611;-60
2022/07/28 06:33:41;;;;;;;4.50;2.00;;;14.80;99.90;;;;;;5087941;27;37435;-60
2022/07/28 06:36:09;;;;;;;6.35;2.38;;;14.80;99.90;;;;;;5087930;27;37190;-61
2022/07/28 06:38:36;;;;;;;4.30;1.45;;;14.90;99.90;;;;;;5088512;27;37749;-61
2022/07/28 06:41:05;;;;;;;6.05;1.70;;;14.90;99.90;;;;;;5088255;27;36729;-61
2022/07/28 06:43:32;;;;;;;4.43;1.48;;;15.00;99.90;;;;;;5086973;27;37618;-60
2022/07/28 06:46:00;;;;;;;4.35;1.40;;;15.00;99.90;;;;;;5085345;27;38734;-61
2022/07/28 06:48:27;;;;;;;8.02;1.88;;;15.00;99.90;;;;;;5088126;27;37012;-61
2022/07/28 06:50:57;;;;;;;4.88;1.35;;;15.00;99.90;;;;;;5088081;27;37646;-60
2022/07/28 06:53:24;;;;;;;4.90;1.20;;;15.10;99.90;;;;;;5088726;27;37585;-61
2022/07/28 06:55:51;;;;;;;5.72;1.10;;;15.10;99.90;;;;;;5087635;27;37871;-60
2022/07/28 06:58:20;;;;;;;5.25;1.00;;;15.10;99.90;;;;;;5069322;27;37472;-61
2022/07/28 07:00:47;;;;;;;6.10;1.00;;;15.10;99.90;;;;;;5068625;28;37848;-60
2022/07/28 07:03:15;;;;;;;4.60;0.95;;;15.10;99.90;;;;;;5068814;28;37936;-61
2022/07/28 07:05:42;;;;;;;7.55;1.30;;;15.10;99.90;;;;;;5064237;28;36135;-60
2022/07/28 07:08:10;;;;;;;3.25;0.90;;;15.10;99.90;;;;;;5067587;28;38404;-61
2022/07/28 07:10:37;;;;;;;4.78;1.23;;;15.10;99.90;;;;;;5066690;28;37535;-60
2022/07/28 07:13:04;;;;;;;3.22;1.05;;;15.00;99.90;;;;;;5064871;28;36407;-61
2022/07/28 07:15:33;;;;;;;6.38;1.20;;;15.00;99.90;;;;;;5065851;28;36930;-61
2022/07/28 07:18:00;;;;;;;5.18;1.10;;;15.00;99.90;;;;;;5063482;28;37045;-61
2022/07/28 07:20:27;;;;;;;4.22;1.00;;;15.00;99.90;;;;;;5065697;28;36449;-61
2022/07/28 07:22:55;;;;;;;6.07;1.67;;;15.10;99.90;;;;;;5066201;28;38740;-60
2022/07/28 07:25:22;;;;;;;6.03;2.30;;;15.10;99.90;;;;;;5065825;28;38862;-60
2022/07/28 07:27:50;;;;;;;5.38;2.60;;;15.10;99.90;;;;;;5068226;28;35345;-61
2022/07/28 07:30:17;;;;;;;5.78;2.30;;;15.10;99.90;;;;;;5068009;28;38215;-61
2022/07/28 07:32:46;;;;;;;4.53;1.95;;;15.10;99.90;;;;;;5067468;28;37512;-60
2022/07/28 07:35:13;;;;;;;4.53;1.98;;;15.10;99.90;;;;;;5066974;28;38029;-60
2022/07/28 07:37:41;;;;;;;4.55;1.73;;;15.10;99.90;;;;;;5066489;28;37234;-61
2022/07/28 07:40:09;;;;;;;6.00;1.95;;;15.10;99.90;;;;;;5066867;28;36038;-62
2022/07/28 07:42:37;;;;;;;3.33;1.30;;;15.10;99.90;;;;;;5065450;28;37823;-61
2022/07/28 07:45:05;;;;;;;4.80;1.40;;;15.10;99.90;;;;;;5065057;28;37400;-61
2022/07/28 07:47:32;;;;;;;2.90;0.90;;;15.10;99.90;;;;;;5066824;28;37488;-60
2022/07/28 07:50:01;;;;;;;6.28;1.23;;;15.10;99.90;;;;;;5068451;28;36364;-61
2022/07/28 07:52:28;;;;;;;3.08;0.88;;;15.10;99.90;;;;;;5066847;28;38202;-61
2022/07/28 07:54:55;;;;;;;1.80;0.88;;;15.20;99.90;;;;;;5067056;28;37390;-61
2022/07/28 07:57:23;;;;;;;3.08;1.00;;;15.20;99.90;;;;;;5065286;28;36835;-61
2022/07/28 07:59:53;;;;;;;3.13;0.98;;;15.20;99.90;;;;;;5062466;28;36463;-61
2022/07/28 08:02:23;;;;;;;5.43;1.27;;;15.30;99.90;;;;;;5062600;28;37587;-61
2022/07/28 08:04:52;;;;;;;3.78;1.30;;;15.30;99.90;;;;;;5064799;28;36470;-61
2022/07/28 08:07:24;;;;;;;6.40;1.40;;;15.40;99.90;;;;;;5063954;28;37046;-62
2022/07/28 08:09:54;;;;;;;3.40;1.40;;;15.40;99.90;;;;;;5060178;28;35233;-61
2022/07/28 08:12:27;;;;;;;5.97;1.30;;;15.40;99.90;;;;;;5058635;28;38362;-57
2022/07/28 08:14:58;;;;;;;3.90;1.30;;;15.50;99.90;;;;;;5062077;28;36537;-57
2022/07/28 08:17:27;;;;;;;6.20;1.40;;;15.50;99.90;;;;;;5060668;28;35111;-57
2022/07/28 08:19:57;;;;;;;5.55;1.27;;;15.60;99.90;;;;;;5063591;28;37022;-57
2022/07/28 08:22:30;;;;;;;6.30;1.65;;;15.60;99.90;;;;;;5062565;28;36206;-57
2022/07/28 08:25:02;;;;;;;6.13;1.30;;;15.70;99.90;;;;;;5063199;28;38272;-57
2022/07/28 08:27:31;;;;;;;6.03;1.48;;;15.70;99.90;;;;;;5062728;28;37660;-57
2022/07/28 08:30:00;;;;;;;4.05;1.48;;;15.70;99.90;;;;;;5063983;28;36017;-57
2022/07/28 08:32:31;;;;;;;6.70;2.00;;;15.80;99.90;;;;;;5062611;28;37962;-57
2022/07/28 08:35:01;;;;;;;3.88;1.38;;;15.90;99.90;;;;;;5064155;28;35610;-57
2022/07/28 08:37:34;;;;;;;4.70;1.63;;;15.90;99.90;;;;;;5063236;28;38568;-61
2022/07/28 08:40:05;;;;;;;9.40;1.23;;;16.00;99.90;;;;;;5062969;28;35619;-61
2022/07/28 08:42:42;;;;;;;4.50;1.67;;;16.00;99.90;;;;;;5060197;28;38720;-61
2022/07/28 08:45:12;;;;;;;3.47;1.10;;;16.10;99.90;;;;;;5061269;28;37601;-61
2022/07/28 08:47:42;;;;;;;3.33;1.17;;;16.10;99.90;;;;;;5060936;28;36911;-61
2022/07/28 08:50:13;;;;;;;2.67;0.88;;;16.10;99.90;;;;;;5059904;28;36562;-61
2022/07/28 08:52:50;;;;;;;6.00;1.20;;;16.20;99.90;;;;;;5061237;28;36396;-61
2022/07/28 08:55:24;;;;;;;6.65;1.35;;;16.30;99.90;;;;;;5063627;28;36908;-60
2022/07/28 08:57:53;;;;;;;4.15;1.17;;;16.40;99.90;;;;;;5077119;27;35900;-61
2022/07/28 09:00:22;;;;;;;3.92;0.90;;;16.50;99.90;;;;;;5081474;27;36665;-60
2022/07/28 09:02:51;;;;;;;4.72;1.40;;;16.50;99.90;;;;;;5083541;27;37042;-60
2022/07/28 09:05:20;;;;;;;4.50;1.23;;;16.60;99.90;;;;;;5082535;27;37250;-60
2022/07/28 09:07:50;;;;;;;5.57;0.90;;;16.60;99.90;;;;;;5081304;27;38151;-60
2022/07/28 09:10:19;;;;;;;5.00;0.85;;;16.70;99.60;;;;;;5080857;27;37236;-60
2022/07/28 09:12:47;;;;;;;4.47;1.10;;;16.70;99.50;;;;;;5080963;27;39032;-60
2022/07/28 09:15:14;;;;;;;4.07;1.05;;;16.80;99.60;;;;;;5081006;27;37481;-60
2022/07/28 09:17:42;;;;;;;5.18;1.30;;;17.00;99.60;;;;;;5080116;27;37942;-60
2022/07/28 09:20:11;;;;;;;3.00;0.90;;;17.20;99.50;;;;;;5082149;27;36501;-60
2022/07/28 09:22:58;;;;;;;2.90;0.80;;;17.40;99.40;;;;;;5081748;27;38654;-61
2022/07/28 09:25:28;;;;;;;5.00;0.90;;;17.80;98.60;;;;;;5081032;27;37544;-60
2022/07/28 09:27:55;;;;;;;3.08;0.70;;;18.00;98.30;;;;;;5081128;27;36965;-61
2022/07/28 09:30:31;;;;;;;6.75;1.73;;;18.30;97.70;;;;;;5082024;27;36649;-61
2022/07/28 09:33:17;;;;;;;1.88;0.70;;;18.40;96.60;;;;;;5080599;27;37883;-61
2022/07/28 09:35:47;;;;;;;2.85;1.00;;;18.70;95.50;;;;;;5080077;27;38420;-61
2022/07/28 09:38:16;;;;;;;5.75;0.75;;;18.90;95.80;;;;;;5080302;27;36042;-60
2022/07/28 09:40:56;;;;;;;4.70;1.00;;;19.00;95.30;;;;;;5083787;27;38046;-61
2022/07/28 09:43:35;;;;;;;6.68;1.05;;;19.10;94.50;;;;;;5082209;27;39052;-61
2022/07/28 09:46:07;;;;;;;2.40;0.75;;;19.20;94.50;;;;;;5082173;27;38532;-60
2022/07/28 09:48:36;;;;;;;5.78;1.00;;;19.30;93.90;;;;;;5081985;27;37835;-60
2022/07/28 09:51:13;;;;;;;6.22;1.10;;;19.40;93.80;;;;;;5083573;27;36834;-60
2022/07/28 09:53:42;;;;;;;4.40;0.90;;;19.60;92.60;;;;;;5082618;27;37946;-61
2022/07/28 09:56:11;;;;;;;4.85;1.00;;;19.70;93.20;;;;;;5082343;27;38094;-62
2022/07/28 09:58:39;;;;;;;2.20;0.77;;;19.80;92.60;;;;;;5073155;28;35904;-61
2022/07/28 10:01:09;;;;;;;5.05;0.80;;;19.70;91.50;;;;;;5069864;28;36566;-62
2022/07/28 10:03:37;;;;;;;3.55;1.17;;;19.60;92.20;;;;;;5073089;28;36396;-62
2022/07/28 10:06:07;;;;;;;5.70;1.40;;;19.60;92.00;;;;;;5073323;28;36099;-62
2022/07/28 10:08:44;;;;;;;3.15;1.05;;;19.70;92.20;;;;;;5075719;27;37063;-62
2022/07/28 10:11:13;;;;;;;2.58;0.65;;;19.80;90.90;;;;;;5074593;28;37047;-62
2022/07/28 10:13:53;;;;;;;3.83;0.95;;;19.80;90.70;;;;;;5075153;28;39410;-62
2022/07/28 10:16:21;;;;;;;2.95;1.00;;;19.90;90.80;;;;;;5079328;28;39119;-62
2022/07/28 10:18:48;;;;;;;1.98;0.80;;;20.10;90.80;;;;;;5081347;28;36438;-62
2022/07/28 10:21:17;;;;;;;5.65;0.80;;;20.20;90.20;;;;;;5079502;28;35943;-63
2022/07/28 10:23:51;;;;;;;4.85;1.10;;;20.20;90.10;;;;;;5078721;28;36271;-62
2022/07/28 10:26:21;;;;;;;2.92;1.10;;;20.20;90.00;;;;;;5080334;28;37104;-62
2022/07/28 10:28:50;;;;;;;3.88;0.85;;;20.10;90.00;;;;;;5081284;28;37911;-62
2022/07/28 10:31:29;;;;;;;4.65;0.70;;;19.90;89.40;;;;;;5077555;28;36436;-63
2022/07/28 10:33:59;;;;;;;2.47;0.80;;;19.70;88.80;;;;;;5078504;28;37002;-63
2022/07/28 10:36:27;;;;;;;2.17;0.82;;;19.50;88.30;;;;;;5077627;28;37380;-63
2022/07/28 10:39:06;;;;;;;2.28;0.77;;;19.40;87.00;;;;;;5080553;28;35611;-63
2022/07/28 10:41:40;;;;;;;4.45;1.05;;;19.40;84.50;;;;;;5078715;28;36797;-63
2022/07/28 10:44:12;;;;;;;2.83;0.70;;;19.50;84.20;;;;;;5079786;28;39490;-63
2022/07/28 10:46:43;;;;;;;3.22;0.80;;;19.50;84.20;;;;;;5079923;28;37236;-63
2022/07/28 10:49:12;;;;;;;7.38;1.17;;;19.40;84.20;;;;;;5080884;28;37066;-63
2022/07/28 10:51:42;;;;;;;1.23;0.50;;;19.40;85.90;;;;;;5079967;28;38069;-63
2022/07/28 10:54:18;;;;;;;4.93;0.90;;;19.30;87.20;;;;;;5079749;28;36367;-63
2022/07/28 10:56:50;;;;;;;2.05;0.65;;;19.30;86.50;;;;;;5076425;28;37431;-63
2022/07/28 10:59:53;;;;;;;3.78;0.73;;;19.20;86.50;;;;;;5065741;28;37373;-63
2022/07/28 11:02:47;;;;;;;2.65;0.75;;;19.20;87.10;;;;;;5061888;28;37504;-63
2022/07/28 11:05:38;;;;;;;4.05;0.85;;;19.10;88.30;;;;;;5060105;28;37412;-63
2022/07/28 11:08:08;;;;;;;3.92;0.70;;;19.10;88.90;;;;;;5049175;28;36007;-62
2022/07/28 11:10:48;;;;;;;3.05;0.75;;;19.00;89.00;;;;;;5057403;28;38500;-63
2022/07/28 11:13:27;;;;;;;4.82;0.73;;;18.90;90.20;;;;;;5059740;28;36457;-63
2022/07/28 11:15:55;;;;;;;4.82;0.80;;;18.90;90.30;;;;;;5059138;28;39404;-63
2022/07/28 11:18:23;;;;;;;2.80;1.08;;;18.80;90.30;;;;;;5059263;28;38267;-63
2022/07/28 11:21:08;;;;;;;5.07;0.80;;;18.80;90.20;;;;;;5060339;28;37842;-63
2022/07/28 11:23:47;;;;;;;3.20;0.80;;;18.70;90.60;;;;;;5059283;28;36585;-63
2022/07/28 11:26:36;;;;;;;4.70;0.98;;;18.80;90.80;;;;;;5056008;28;37592;-63
2022/07/28 11:29:17;;;;;;;3.65;0.98;;;18.80;90.80;;;;;;5057445;28;37398;-63
2022/07/28 11:32:06;;;;;;;4.68;0.52;;;18.80;91.00;;;;;;5058931;28;38018;-63
2022/07/28 11:35:06;;;;;;;3.45;1.10;;;18.80;90.30;;;;;;5060732;28;37994;-63
2022/07/28 11:38:09;;;;;;;3.75;1.00;;;18.80;90.60;;;;;;5060616;28;38044;-63
2022/07/28 11:40:39;;;;;;;3.75;0.80;;;18.70;91.00;;;;;;5059938;28;37928;-63
2022/07/28 11:43:28;;;;;;;3.88;0.70;;;18.60;91.50;;;;;;5059261;28;35784;-63
2022/07/28 11:46:31;;;;;;;1.90;0.68;;;18.50;91.50;;;;;;5061883;28;35284;-63
2022/07/28 11:49:19;;;;;;;1.45;0.50;;;18.40;91.70;;;;;;5057836;28;37684;-63
2022/07/28 11:52:12;;;;;;;4.15;0.90;;;18.40;90.80;;;;;;5059861;28;35528;-63
2022/07/28 11:54:41;;;;;;;4.28;0.82;;;18.30;91.10;;;;;;5046139;28;35715;-63
2022/07/28 11:57:10;;;;;;;4.90;1.02;;;18.30;91.10;;;;;;5058855;27;35275;-63
2022/07/28 11:59:43;;;;;;;3.45;0.80;;;18.30;90.10;;;;;;5078236;27;39599;-62
2022/07/28 12:02:14;;;;;;;1.35;0.52;;;18.30;89.10;;;;;;5080110;27;36324;-63
2022/07/28 12:04:42;;;;;;;4.00;0.93;;;18.30;89.40;;;;;;5078871;27;37153;-63
2022/07/28 12:07:10;;;;;;;2.78;0.70;;;18.30;89.30;;;;;;5079911;27;37538;-63
2022/07/28 12:09:38;;;;;;;3.70;0.82;;;18.40;89.80;;;;;;5079380;27;37333;-63
2022/07/28 12:12:07;;;;;;;2.60;1.20;;;18.40;88.70;;;;;;5077649;27;37283;-63
2022/07/28 12:14:43;;;;;;;3.33;1.00;;;18.40;88.50;;;;;;5077848;27;37078;-63
2022/07/28 12:17:10;;;;;;;2.20;0.90;;;18.40;89.10;;;;;;5079566;27;36263;-63
2022/07/28 12:19:38;;;;;;;4.07;0.77;;;18.50;90.40;;;;;;5078988;27;38937;-63
2022/07/28 12:22:10;;;;;;;2.28;0.75;;;18.60;90.40;;;;;;5080525;27;37707;-63
2022/07/28 12:24:37;;;;;;;1.98;0.70;;;18.60;90.40;;;;;;5079996;27;37154;-63
2022/07/28 12:27:05;;;;;;;2.88;0.77;;;18.70;90.40;;;;;;5080817;27;35295;-63
2022/07/28 12:29:32;;;;;;;2.67;0.75;;;18.80;90.90;;;;;;5078118;27;38992;-63
2022/07/28 12:32:03;;;;;;;3.30;1.05;;;18.80;90.20;;;;;;5078615;27;37486;-63
2022/07/28 12:34:32;;;;;;;1.83;0.63;;;18.80;89.90;;;;;;5079191;27;35882;-63
2022/07/28 12:37:01;;;;;;;2.85;0.80;;;18.80;90.30;;;;;;5081599;27;37888;-64
2022/07/28 13:00:12;;;;;;;3.03;0.90;;;19.00;90.40;;;;;;5085371;27;38057;-65
2022/07/28 13:02:40;;;;;;;4.35;0.95;;;19.10;89.60;;;;;;5063494;22;38234;-64
2022/07/28 13:05:09;;;;;;;2.10;0.80;;;19.10;88.90;;;;;;5091260;27;37354;-65
2022/07/28 13:07:37;;;;;;;3.70;0.85;;;19.20;90.10;;;;;;5092168;27;37774;-65
2022/07/28 13:12:40;;;;;;;1.50;0.60;;;19.40;86.30;;;;;;5183024;22;20048;-65
2022/07/28 13:15:16;;;;;;;3.70;0.90;;;19.40;86.20;;;;;;5063130;28;37183;-64
2022/07/28 13:17:52;;;;;;;3.88;1.05;;;19.40;88.10;;;;;;5064461;28;39257;-64
2022/07/28 13:20:20;;;;;;;2.03;0.73;;;19.50;88.70;;;;;;5060497;28;37630;-64
2022/07/28 13:22:48;;;;;;;4.72;0.95;;;19.50;88.50;;;;;;5061216;28;37338;-65
2022/07/28 13:25:15;;;;;;;4.10;0.63;;;19.50;87.70;;;;;;5063086;28;35862;-65
2022/07/28 13:27:43;;;;;;;3.35;0.80;;;19.60;87.70;;;;;;5053420;28;37512;-64
2022/07/28 13:30:11;;;;;;;5.05;0.82;;;19.60;88.70;;;;;;5055788;28;38249;-64